sensor_id;sensor_type;location;lat;lon;timestamp;P1;durP1;ratioP1;P2;durP2;ratioP2
52186;SDS011;38161;53.020;6.598;2023-11-21T00:01:41;22.60;;;7.03;;
52186;SDS011;38161;53.020;6.598;2023-11-21T00:06:34;14.40;;;6.65;;
52186;SDS011;38161;53.020;6.598;2023-11-21T00:09:00;18.15;;;6.03;;
52186;SDS011;38161;53.020;6.598;2023-11-21T00:11:26;17.70;;;6.90;;
52186;SDS011;38161;53.020;6.598;2023-11-21T00:13:52;22.07;;;6.13;;
52186;SDS011;38161;53.020;6.598;2023-11-21T00:16:25;16.85;;;6.57;;
52186;SDS011;38161;53.020;6.598;2023-11-21T00:18:50;14.48;;;5.97;;
52186;SDS011;38161;53.020;6.598;2023-11-21T00:21:16;17.17;;;6.27;;
52186;SDS011;38161;53.020;6.598;2023-11-21T00:23:43;15.45;;;7.25;;
52186;SDS011;38161;53.020;6.598;2023-11-21T00:26:08;16.27;;;7.07;;
52186;SDS011;38161;53.020;6.598;2023-11-21T00:28:35;17.25;;;6.75;;
52186;SDS011;38161;53.020;6.598;2023-11-21T00:31:00;17.55;;;7.13;;
52186;SDS011;38161;53.020;6.598;2023-11-21T00:33:26;21.80;;;7.78;;
52186;SDS011;38161;53.020;6.598;2023-11-21T00:35:52;22.42;;;7.68;;
52186;SDS011;38161;53.020;6.598;2023-11-21T00:38:18;18.67;;;8.20;;
52186;SDS011;38161;53.020;6.598;2023-11-21T00:40:45;15.48;;;7.30;;
52186;SDS011;38161;53.020;6.598;2023-11-21T00:43:11;13.52;;;7.10;;
52186;SDS011;38161;53.020;6.598;2023-11-21T00:45:37;16.63;;;7.22;;
52186;SDS011;38161;53.020;6.598;2023-11-21T00:48:05;20.17;;;8.13;;
52186;SDS011;38161;53.020;6.598;2023-11-21T00:50:31;19.77;;;7.50;;
52186;SDS011;38161;53.020;6.598;2023-11-21T00:52:57;16.73;;;7.22;;
52186;SDS011;38161;53.020;6.598;2023-11-21T00:55:23;18.77;;;8.10;;
52186;SDS011;38161;53.020;6.598;2023-11-21T00:57:51;19.30;;;7.95;;
52186;SDS011;38161;53.020;6.598;2023-11-21T01:00:17;20.60;;;8.57;;
52186;SDS011;38161;53.020;6.598;2023-11-21T01:02:43;19.50;;;8.40;;
52186;SDS011;38161;53.020;6.598;2023-11-21T01:07:36;17.33;;;8.02;;
52186;SDS011;38161;53.020;6.598;2023-11-21T01:10:02;20.60;;;9.02;;
52186;SDS011;38161;53.020;6.598;2023-11-21T01:12:33;17.70;;;8.55;;
52186;SDS011;38161;53.020;6.598;2023-11-21T01:15:00;19.48;;;8.25;;
52186;SDS011;38161;53.020;6.598;2023-11-21T01:17:26;22.80;;;9.25;;
52186;SDS011;38161;53.020;6.598;2023-11-21T01:19:52;19.42;;;8.70;;
52186;SDS011;38161;53.020;6.598;2023-11-21T01:22:18;22.20;;;9.43;;
52186;SDS011;38161;53.020;6.598;2023-11-21T01:24:50;20.58;;;8.50;;
52186;SDS011;38161;53.020;6.598;2023-11-21T01:27:17;25.08;;;9.93;;
52186;SDS011;38161;53.020;6.598;2023-11-21T01:29:43;19.02;;;9.70;;
52186;SDS011;38161;53.020;6.598;2023-11-21T01:32:10;26.50;;;9.60;;
52186;SDS011;38161;53.020;6.598;2023-11-21T01:34:36;17.30;;;8.52;;
52186;SDS011;38161;53.020;6.598;2023-11-21T01:37:03;26.73;;;10.20;;
52186;SDS011;38161;53.020;6.598;2023-11-21T01:39:30;22.52;;;10.07;;
52186;SDS011;38161;53.020;6.598;2023-11-21T01:41:57;23.85;;;10.15;;
52186;SDS011;38161;53.020;6.598;2023-11-21T01:44:26;24.15;;;10.10;;
52186;SDS011;38161;53.020;6.598;2023-11-21T01:46:52;23.65;;;10.10;;
52186;SDS011;38161;53.020;6.598;2023-11-21T01:49:19;23.98;;;10.80;;
52186;SDS011;38161;53.020;6.598;2023-11-21T01:51:47;27.73;;;10.60;;
52186;SDS011;38161;53.020;6.598;2023-11-21T01:54:15;24.88;;;10.48;;
52186;SDS011;38161;53.020;6.598;2023-11-21T01:56:46;24.90;;;11.77;;
52186;SDS011;38161;53.020;6.598;2023-11-21T01:59:13;24.83;;;11.10;;
52186;SDS011;38161;53.020;6.598;2023-11-21T02:01:43;29.92;;;11.65;;
52186;SDS011;38161;53.020;6.598;2023-11-21T02:04:09;27.80;;;11.32;;
52186;SDS011;38161;53.020;6.598;2023-11-21T02:06:35;32.05;;;12.63;;
52186;SDS011;38161;53.020;6.598;2023-11-21T02:09:01;28.40;;;9.75;;
52186;SDS011;38161;53.020;6.598;2023-11-21T02:11:30;31.60;;;11.98;;
52186;SDS011;38161;53.020;6.598;2023-11-21T02:13:57;25.23;;;10.88;;
52186;SDS011;38161;53.020;6.598;2023-11-21T02:16:26;26.10;;;11.10;;
52186;SDS011;38161;53.020;6.598;2023-11-21T02:18:52;24.30;;;11.73;;
52186;SDS011;38161;53.020;6.598;2023-11-21T02:21:19;25.80;;;11.73;;
52186;SDS011;38161;53.020;6.598;2023-11-21T02:23:45;24.92;;;11.38;;
52186;SDS011;38161;53.020;6.598;2023-11-21T02:28:39;28.17;;;11.27;;
52186;SDS011;38161;53.020;6.598;2023-11-21T02:31:05;26.70;;;12.20;;
52186;SDS011;38161;53.020;6.598;2023-11-21T02:33:33;23.80;;;10.55;;
52186;SDS011;38161;53.020;6.598;2023-11-21T02:36:00;40.30;;;12.10;;
52186;SDS011;38161;53.020;6.598;2023-11-21T02:38:26;28.98;;;11.15;;
52186;SDS011;38161;53.020;6.598;2023-11-21T02:40:52;29.90;;;11.93;;
52186;SDS011;38161;53.020;6.598;2023-11-21T02:43:18;26.90;;;11.80;;
52186;SDS011;38161;53.020;6.598;2023-11-21T02:45:44;27.27;;;12.25;;
52186;SDS011;38161;53.020;6.598;2023-11-21T02:48:10;33.83;;;14.02;;
52186;SDS011;38161;53.020;6.598;2023-11-21T02:50:36;33.88;;;12.95;;
52186;SDS011;38161;53.020;6.598;2023-11-21T02:53:03;26.65;;;11.02;;
52186;SDS011;38161;53.020;6.598;2023-11-21T02:55:31;26.15;;;11.30;;
52186;SDS011;38161;53.020;6.598;2023-11-21T02:58:00;24.00;;;11.00;;
52186;SDS011;38161;53.020;6.598;2023-11-21T03:00:26;31.75;;;11.85;;
52186;SDS011;38161;53.020;6.598;2023-11-21T03:02:52;27.00;;;11.55;;
52186;SDS011;38161;53.020;6.598;2023-11-21T03:05:26;27.40;;;10.35;;
52186;SDS011;38161;53.020;6.598;2023-11-21T03:07:54;21.88;;;10.68;;
52186;SDS011;38161;53.020;6.598;2023-11-21T03:10:20;24.70;;;10.70;;
52186;SDS011;38161;53.020;6.598;2023-11-21T03:12:46;24.73;;;10.70;;
52186;SDS011;38161;53.020;6.598;2023-11-21T03:15:12;26.50;;;10.40;;
52186;SDS011;38161;53.020;6.598;2023-11-21T03:17:38;26.98;;;11.23;;
52186;SDS011;38161;53.020;6.598;2023-11-21T03:20:05;26.67;;;11.25;;
52186;SDS011;38161;53.020;6.598;2023-11-21T03:22:35;32.70;;;11.93;;
52186;SDS011;38161;53.020;6.598;2023-11-21T03:25:02;24.77;;;10.90;;
52186;SDS011;38161;53.020;6.598;2023-11-21T03:27:29;29.90;;;11.93;;
52186;SDS011;38161;53.020;6.598;2023-11-21T03:29:55;24.80;;;10.98;;
52186;SDS011;38161;53.020;6.598;2023-11-21T03:32:21;23.55;;;10.98;;
52186;SDS011;38161;53.020;6.598;2023-11-21T03:34:55;31.65;;;12.25;;
52186;SDS011;38161;53.020;6.598;2023-11-21T03:37:23;22.65;;;10.80;;
52186;SDS011;38161;53.020;6.598;2023-11-21T03:39:50;39.00;;;12.55;;
52186;SDS011;38161;53.020;6.598;2023-11-21T03:42:16;26.85;;;11.52;;
52186;SDS011;38161;53.020;6.598;2023-11-21T03:44:42;34.50;;;12.68;;
52186;SDS011;38161;53.020;6.598;2023-11-21T03:47:08;33.97;;;11.32;;
52186;SDS011;38161;53.020;6.598;2023-11-21T03:49:34;28.00;;;11.77;;
52186;SDS011;38161;53.020;6.598;2023-11-21T03:52:00;29.05;;;12.48;;
52186;SDS011;38161;53.020;6.598;2023-11-21T03:54:37;25.43;;;10.83;;
52186;SDS011;38161;53.020;6.598;2023-11-21T03:57:03;31.95;;;11.55;;
52186;SDS011;38161;53.020;6.598;2023-11-21T03:59:29;30.05;;;11.93;;
52186;SDS011;38161;53.020;6.598;2023-11-21T04:01:55;32.85;;;12.77;;
52186;SDS011;38161;53.020;6.598;2023-11-21T04:04:22;41.50;;;11.77;;
52186;SDS011;38161;53.020;6.598;2023-11-21T04:06:48;46.95;;;15.40;;
52186;SDS011;38161;53.020;6.598;2023-11-21T04:09:13;48.15;;;13.35;;
52186;SDS011;38161;53.020;6.598;2023-11-21T04:11:39;33.95;;;12.63;;
52186;SDS011;38161;53.020;6.598;2023-11-21T04:14:05;33.22;;;12.60;;
52186;SDS011;38161;53.020;6.598;2023-11-21T04:16:31;29.77;;;11.65;;
52186;SDS011;38161;53.020;6.598;2023-11-21T04:18:57;35.40;;;11.97;;
52186;SDS011;38161;53.020;6.598;2023-11-21T04:21:23;34.97;;;12.98;;
52186;SDS011;38161;53.020;6.598;2023-11-21T04:23:49;30.15;;;11.98;;
52186;SDS011;38161;53.020;6.598;2023-11-21T04:26:15;33.38;;;13.00;;
52186;SDS011;38161;53.020;6.598;2023-11-21T04:28:41;42.13;;;14.85;;
52186;SDS011;38161;53.020;6.598;2023-11-21T04:31:07;32.25;;;13.07;;
52186;SDS011;38161;53.020;6.598;2023-11-21T04:33:39;37.33;;;14.00;;
52186;SDS011;38161;53.020;6.598;2023-11-21T04:36:05;33.33;;;12.57;;
52186;SDS011;38161;53.020;6.598;2023-11-21T04:38:31;36.33;;;14.43;;
52186;SDS011;38161;53.020;6.598;2023-11-21T04:41:00;37.88;;;13.27;;
52186;SDS011;38161;53.020;6.598;2023-11-21T04:43:26;34.78;;;13.77;;
52186;SDS011;38161;53.020;6.598;2023-11-21T04:45:52;30.50;;;13.82;;
52186;SDS011;38161;53.020;6.598;2023-11-21T04:48:18;29.58;;;13.15;;
52186;SDS011;38161;53.020;6.598;2023-11-21T04:53:10;26.65;;;12.20;;
52186;SDS011;38161;53.020;6.598;2023-11-21T04:55:39;24.45;;;12.15;;
52186;SDS011;38161;53.020;6.598;2023-11-21T04:58:07;23.50;;;11.52;;
52186;SDS011;38161;53.020;6.598;2023-11-21T05:00:33;24.05;;;12.38;;
52186;SDS011;38161;53.020;6.598;2023-11-21T05:02:59;24.10;;;11.25;;
52186;SDS011;38161;53.020;6.598;2023-11-21T05:05:29;21.48;;;10.95;;
52186;SDS011;38161;53.020;6.598;2023-11-21T05:07:57;24.38;;;11.40;;
52186;SDS011;38161;53.020;6.598;2023-11-21T05:10:23;39.83;;;13.50;;
52186;SDS011;38161;53.020;6.598;2023-11-21T05:12:49;23.05;;;12.60;;
52186;SDS011;38161;53.020;6.598;2023-11-21T05:15:15;25.40;;;11.90;;
52186;SDS011;38161;53.020;6.598;2023-11-21T05:17:45;27.80;;;12.80;;
52186;SDS011;38161;53.020;6.598;2023-11-21T05:20:11;30.38;;;13.10;;
52186;SDS011;38161;53.020;6.598;2023-11-21T05:22:39;24.35;;;11.88;;
52186;SDS011;38161;53.020;6.598;2023-11-21T05:25:05;25.52;;;12.95;;
52186;SDS011;38161;53.020;6.598;2023-11-21T05:27:36;26.27;;;11.80;;
52186;SDS011;38161;53.020;6.598;2023-11-21T05:30:02;22.58;;;11.77;;
52186;SDS011;38161;53.020;6.598;2023-11-21T05:32:30;25.88;;;12.30;;
52186;SDS011;38161;53.020;6.598;2023-11-21T05:37:29;24.45;;;11.68;;
52186;SDS011;38161;53.020;6.598;2023-11-21T05:39:56;33.38;;;13.02;;
52186;SDS011;38161;53.020;6.598;2023-11-21T05:42:22;30.50;;;13.05;;
52186;SDS011;38161;53.020;6.598;2023-11-21T05:44:48;25.08;;;12.60;;
52186;SDS011;38161;53.020;6.598;2023-11-21T05:47:14;26.13;;;12.82;;
52186;SDS011;38161;53.020;6.598;2023-11-21T05:49:40;23.08;;;11.45;;
52186;SDS011;38161;53.020;6.598;2023-11-21T05:52:06;26.05;;;12.52;;
52186;SDS011;38161;53.020;6.598;2023-11-21T05:54:32;27.95;;;12.75;;
52186;SDS011;38161;53.020;6.598;2023-11-21T05:56:59;29.42;;;12.15;;
52186;SDS011;38161;53.020;6.598;2023-11-21T05:59:24;22.70;;;11.88;;
52186;SDS011;38161;53.020;6.598;2023-11-21T06:01:50;26.25;;;12.02;;
52186;SDS011;38161;53.020;6.598;2023-11-21T06:04:17;32.05;;;13.13;;
52186;SDS011;38161;53.020;6.598;2023-11-21T06:06:43;31.10;;;13.50;;
52186;SDS011;38161;53.020;6.598;2023-11-21T06:09:09;28.80;;;12.73;;
52186;SDS011;38161;53.020;6.598;2023-11-21T06:11:37;28.02;;;12.50;;
52186;SDS011;38161;53.020;6.598;2023-11-21T06:14:02;33.70;;;13.10;;
52186;SDS011;38161;53.020;6.598;2023-11-21T06:16:28;28.92;;;11.77;;
52186;SDS011;38161;53.020;6.598;2023-11-21T06:18:54;27.77;;;11.90;;
52186;SDS011;38161;53.020;6.598;2023-11-21T06:21:20;20.27;;;9.98;;
52186;SDS011;38161;53.020;6.598;2023-11-21T06:23:46;17.60;;;9.73;;
52186;SDS011;38161;53.020;6.598;2023-11-21T06:26:12;19.73;;;8.93;;
52186;SDS011;38161;53.020;6.598;2023-11-21T06:28:40;18.65;;;9.43;;
52186;SDS011;38161;53.020;6.598;2023-11-21T06:31:06;22.23;;;8.98;;
52186;SDS011;38161;53.020;6.598;2023-11-21T06:33:32;17.10;;;8.48;;
52186;SDS011;38161;53.020;6.598;2023-11-21T06:35:58;17.10;;;8.27;;
52186;SDS011;38161;53.020;6.598;2023-11-21T06:40:53;13.43;;;7.40;;
52186;SDS011;38161;53.020;6.598;2023-11-21T06:43:26;14.18;;;7.88;;
52186;SDS011;38161;53.020;6.598;2023-11-21T06:45:52;16.60;;;8.40;;
52186;SDS011;38161;53.020;6.598;2023-11-21T06:48:20;16.15;;;8.23;;
52186;SDS011;38161;53.020;6.598;2023-11-21T06:50:46;15.20;;;7.72;;
52186;SDS011;38161;53.020;6.598;2023-11-21T06:53:11;14.37;;;7.70;;
52186;SDS011;38161;53.020;6.598;2023-11-21T06:58:04;15.00;;;6.85;;
52186;SDS011;38161;53.020;6.598;2023-11-21T07:00:30;17.58;;;7.82;;
52186;SDS011;38161;53.020;6.598;2023-11-21T07:02:56;17.52;;;8.50;;
52186;SDS011;38161;53.020;6.598;2023-11-21T07:05:22;17.55;;;8.75;;
52186;SDS011;38161;53.020;6.598;2023-11-21T07:07:48;16.75;;;8.88;;
52186;SDS011;38161;53.020;6.598;2023-11-21T07:10:16;16.75;;;8.65;;
52186;SDS011;38161;53.020;6.598;2023-11-21T07:12:42;17.05;;;9.25;;
52186;SDS011;38161;53.020;6.598;2023-11-21T07:15:08;18.55;;;9.55;;
52186;SDS011;38161;53.020;6.598;2023-11-21T07:17:35;16.65;;;8.90;;
52186;SDS011;38161;53.020;6.598;2023-11-21T07:20:02;18.33;;;8.75;;
52186;SDS011;38161;53.020;6.598;2023-11-21T07:22:29;17.92;;;8.93;;
52186;SDS011;38161;53.020;6.598;2023-11-21T07:24:55;19.98;;;9.90;;
52186;SDS011;38161;53.020;6.598;2023-11-21T07:27:24;20.23;;;9.95;;
52186;SDS011;38161;53.020;6.598;2023-11-21T07:29:50;19.58;;;10.63;;
52186;SDS011;38161;53.020;6.598;2023-11-21T07:32:16;23.02;;;9.93;;
52186;SDS011;38161;53.020;6.598;2023-11-21T07:34:42;21.90;;;10.02;;
52186;SDS011;38161;53.020;6.598;2023-11-21T07:37:08;18.58;;;9.38;;
52186;SDS011;38161;53.020;6.598;2023-11-21T07:39:36;20.30;;;10.40;;
52186;SDS011;38161;53.020;6.598;2023-11-21T07:42:02;21.20;;;10.50;;
52186;SDS011;38161;53.020;6.598;2023-11-21T07:44:29;22.70;;;10.27;;
52186;SDS011;38161;53.020;6.598;2023-11-21T07:46:55;25.40;;;11.48;;
52186;SDS011;38161;53.020;6.598;2023-11-21T07:49:24;21.88;;;10.30;;
52186;SDS011;38161;53.020;6.598;2023-11-21T07:51:51;18.33;;;10.15;;
52186;SDS011;38161;53.020;6.598;2023-11-21T07:54:17;19.20;;;10.60;;
52186;SDS011;38161;53.020;6.598;2023-11-21T07:56:43;24.60;;;12.25;;
52186;SDS011;38161;53.020;6.598;2023-11-21T08:01:36;18.92;;;10.30;;
52186;SDS011;38161;53.020;6.598;2023-11-21T08:04:01;21.48;;;10.85;;
52186;SDS011;38161;53.020;6.598;2023-11-21T08:06:31;21.88;;;10.73;;
52186;SDS011;38161;53.020;6.598;2023-11-21T08:08:58;18.70;;;10.07;;
52186;SDS011;38161;53.020;6.598;2023-11-21T08:11:25;21.08;;;9.95;;
52186;SDS011;38161;53.020;6.598;2023-11-21T08:13:56;19.08;;;10.75;;
52186;SDS011;38161;53.020;6.598;2023-11-21T08:16:22;18.52;;;9.93;;
52186;SDS011;38161;53.020;6.598;2023-11-21T08:21:15;16.90;;;9.25;;
52186;SDS011;38161;53.020;6.598;2023-11-21T08:23:41;18.20;;;9.82;;
52186;SDS011;38161;53.020;6.598;2023-11-21T08:26:08;19.27;;;10.30;;
52186;SDS011;38161;53.020;6.598;2023-11-21T08:28:34;19.42;;;10.90;;
52186;SDS011;38161;53.020;6.598;2023-11-21T08:31:00;18.73;;;10.37;;
52186;SDS011;38161;53.020;6.598;2023-11-21T08:33:27;20.38;;;11.98;;
52186;SDS011;38161;53.020;6.598;2023-11-21T08:35:52;22.65;;;11.90;;
52186;SDS011;38161;53.020;6.598;2023-11-21T08:38:18;23.70;;;12.18;;
52186;SDS011;38161;53.020;6.598;2023-11-21T08:40:44;24.27;;;13.15;;
52186;SDS011;38161;53.020;6.598;2023-11-21T08:43:11;26.30;;;13.30;;
52186;SDS011;38161;53.020;6.598;2023-11-21T08:45:39;25.45;;;14.25;;
52186;SDS011;38161;53.020;6.598;2023-11-21T08:48:05;22.70;;;12.90;;
52186;SDS011;38161;53.020;6.598;2023-11-21T08:50:31;23.90;;;13.23;;
52186;SDS011;38161;53.020;6.598;2023-11-21T08:52:56;33.90;;;13.73;;
52186;SDS011;38161;53.020;6.598;2023-11-21T08:55:22;22.77;;;13.07;;
52186;SDS011;38161;53.020;6.598;2023-11-21T08:57:48;23.10;;;14.23;;
52186;SDS011;38161;53.020;6.598;2023-11-21T09:00:14;24.75;;;13.95;;
52186;SDS011;38161;53.020;6.598;2023-11-21T09:02:42;22.55;;;13.55;;
52186;SDS011;38161;53.020;6.598;2023-11-21T09:05:09;24.00;;;13.30;;
52186;SDS011;38161;53.020;6.598;2023-11-21T09:07:37;22.60;;;13.93;;
52186;SDS011;38161;53.020;6.598;2023-11-21T09:10:05;20.08;;;13.38;;
52186;SDS011;38161;53.020;6.598;2023-11-21T09:12:37;20.20;;;13.30;;
52186;SDS011;38161;53.020;6.598;2023-11-21T09:15:04;22.33;;;15.07;;
52186;SDS011;38161;53.020;6.598;2023-11-21T09:17:31;23.67;;;15.50;;
52186;SDS011;38161;53.020;6.598;2023-11-21T09:20:00;29.00;;;16.98;;
52186;SDS011;38161;53.020;6.598;2023-11-21T09:22:26;25.75;;;16.17;;
52186;SDS011;38161;53.020;6.598;2023-11-21T09:24:55;22.95;;;15.45;;
52186;SDS011;38161;53.020;6.598;2023-11-21T09:27:23;27.70;;;16.35;;
52186;SDS011;38161;53.020;6.598;2023-11-21T09:29:49;23.67;;;14.70;;
52186;SDS011;38161;53.020;6.598;2023-11-21T09:32:15;24.13;;;15.80;;
52186;SDS011;38161;53.020;6.598;2023-11-21T09:34:41;28.70;;;16.90;;
52186;SDS011;38161;53.020;6.598;2023-11-21T09:37:07;23.10;;;14.45;;
52186;SDS011;38161;53.020;6.598;2023-11-21T09:39:33;25.50;;;15.10;;
52186;SDS011;38161;53.020;6.598;2023-11-21T09:44:35;22.65;;;15.10;;
52186;SDS011;38161;53.020;6.598;2023-11-21T09:47:04;20.83;;;14.25;;
52186;SDS011;38161;53.020;6.598;2023-11-21T09:49:35;25.25;;;16.10;;
52186;SDS011;38161;53.020;6.598;2023-11-21T09:54:29;24.63;;;12.95;;
52186;SDS011;38161;53.020;6.598;2023-11-21T09:56:57;23.27;;;13.98;;
52186;SDS011;38161;53.020;6.598;2023-11-21T09:59:30;23.75;;;13.70;;
52186;SDS011;38161;53.020;6.598;2023-11-21T10:01:59;22.85;;;13.95;;
52186;SDS011;38161;53.020;6.598;2023-11-21T10:04:25;20.45;;;13.15;;
52186;SDS011;38161;53.020;6.598;2023-11-21T10:09:18;21.08;;;12.90;;
52186;SDS011;38161;53.020;6.598;2023-11-21T10:11:45;20.67;;;12.60;;
52186;SDS011;38161;53.020;6.598;2023-11-21T10:14:15;19.92;;;11.85;;
52186;SDS011;38161;53.020;6.598;2023-11-21T10:16:44;24.98;;;14.25;;
52186;SDS011;38161;53.020;6.598;2023-11-21T10:19:12;20.83;;;13.20;;
52186;SDS011;38161;53.020;6.598;2023-11-21T10:21:39;22.90;;;14.15;;
52186;SDS011;38161;53.020;6.598;2023-11-21T10:24:06;20.92;;;13.02;;
52186;SDS011;38161;53.020;6.598;2023-11-21T10:26:32;18.48;;;12.20;;
52186;SDS011;38161;53.020;6.598;2023-11-21T10:29:00;18.02;;;11.23;;
52186;SDS011;38161;53.020;6.598;2023-11-21T10:31:31;16.60;;;11.32;;
52186;SDS011;38161;53.020;6.598;2023-11-21T10:34:15;14.73;;;10.32;;
52186;SDS011;38161;53.020;6.598;2023-11-21T10:36:45;17.08;;;10.35;;
52186;SDS011;38161;53.020;6.598;2023-11-21T10:39:18;17.58;;;10.18;;
52186;SDS011;38161;53.020;6.598;2023-11-21T10:41:45;15.35;;;10.02;;
52186;SDS011;38161;53.020;6.598;2023-11-21T10:44:16;15.07;;;9.55;;
52186;SDS011;38161;53.020;6.598;2023-11-21T10:46:52;15.52;;;9.32;;
52186;SDS011;38161;53.020;6.598;2023-11-21T10:49:25;13.32;;;8.77;;
52186;SDS011;38161;53.020;6.598;2023-11-21T10:51:53;13.38;;;8.27;;
52186;SDS011;38161;53.020;6.598;2023-11-21T10:54:20;14.95;;;9.05;;
52186;SDS011;38161;53.020;6.598;2023-11-21T10:56:46;12.75;;;8.43;;
52186;SDS011;38161;53.020;6.598;2023-11-21T10:59:17;11.82;;;7.88;;
52186;SDS011;38161;53.020;6.598;2023-11-21T11:01:46;12.10;;;7.45;;
52186;SDS011;38161;53.020;6.598;2023-11-21T11:04:16;13.98;;;7.57;;
52186;SDS011;38161;53.020;6.598;2023-11-21T11:06:44;12.88;;;7.85;;
52186;SDS011;38161;53.020;6.598;2023-11-21T11:09:19;12.57;;;7.65;;
52186;SDS011;38161;53.020;6.598;2023-11-21T11:14:12;14.10;;;7.28;;
52186;SDS011;38161;53.020;6.598;2023-11-21T11:16:39;10.75;;;7.15;;
52186;SDS011;38161;53.020;6.598;2023-11-21T11:19:07;11.50;;;7.35;;
52186;SDS011;38161;53.020;6.598;2023-11-21T11:26:51;11.88;;;7.85;;
52186;SDS011;38161;53.020;6.598;2023-11-21T11:29:34;11.55;;;7.68;;
52186;SDS011;38161;53.020;6.598;2023-11-21T11:37:26;12.82;;;7.60;;
52186;SDS011;38161;53.020;6.598;2023-11-21T11:39:52;12.38;;;7.70;;
52186;SDS011;38161;53.020;6.598;2023-11-21T11:42:19;11.73;;;7.63;;
52186;SDS011;38161;53.020;6.598;2023-11-21T11:44:49;11.82;;;7.75;;
52186;SDS011;38161;53.020;6.598;2023-11-21T11:50:08;12.27;;;7.45;;
52186;SDS011;38161;53.020;6.598;2023-11-21T11:52:45;11.52;;;7.45;;
52186;SDS011;38161;53.020;6.598;2023-11-21T11:55:13;11.20;;;6.97;;
52186;SDS011;38161;53.020;6.598;2023-11-21T11:57:43;11.93;;;7.35;;
52186;SDS011;38161;53.020;6.598;2023-11-21T12:02:47;11.40;;;6.38;;
52186;SDS011;38161;53.020;6.598;2023-11-21T12:05:16;11.10;;;7.35;;
52186;SDS011;38161;53.020;6.598;2023-11-21T12:07:52;10.15;;;6.68;;
52186;SDS011;38161;53.020;6.598;2023-11-21T12:10:28;10.48;;;6.22;;
52186;SDS011;38161;53.020;6.598;2023-11-21T12:12:58;10.30;;;6.38;;
52186;SDS011;38161;53.020;6.598;2023-11-21T12:15:26;10.68;;;6.25;;
52186;SDS011;38161;53.020;6.598;2023-11-21T12:17:56;11.18;;;6.70;;
52186;SDS011;38161;53.020;6.598;2023-11-21T12:20:26;10.80;;;6.93;;
52186;SDS011;38161;53.020;6.598;2023-11-21T12:22:54;11.98;;;7.15;;
52186;SDS011;38161;53.020;6.598;2023-11-21T12:25:25;12.38;;;7.00;;
52186;SDS011;38161;53.020;6.598;2023-11-21T12:27:57;10.52;;;6.43;;
52186;SDS011;38161;53.020;6.598;2023-11-21T12:30:28;11.52;;;7.03;;
52186;SDS011;38161;53.020;6.598;2023-11-21T12:33:00;11.70;;;7.28;;
52186;SDS011;38161;53.020;6.598;2023-11-21T12:35:28;11.38;;;7.40;;
52186;SDS011;38161;53.020;6.598;2023-11-21T12:37:56;12.65;;;6.85;;
52186;SDS011;38161;53.020;6.598;2023-11-21T12:40:25;12.27;;;7.95;;
52186;SDS011;38161;53.020;6.598;2023-11-21T12:42:53;13.48;;;7.63;;
52186;SDS011;38161;53.020;6.598;2023-11-21T12:45:27;12.65;;;7.53;;
52186;SDS011;38161;53.020;6.598;2023-11-21T12:48:01;10.50;;;6.35;;
52186;SDS011;38161;53.020;6.598;2023-11-21T12:50:32;12.57;;;7.32;;
52186;SDS011;38161;53.020;6.598;2023-11-21T12:53:02;10.73;;;6.78;;
52186;SDS011;38161;53.020;6.598;2023-11-21T12:55:33;11.32;;;6.60;;
52186;SDS011;38161;53.020;6.598;2023-11-21T12:58:04;13.32;;;6.93;;
52186;SDS011;38161;53.020;6.598;2023-11-21T13:00:35;10.70;;;6.75;;
52186;SDS011;38161;53.020;6.598;2023-11-21T13:03:09;11.07;;;7.10;;
52186;SDS011;38161;53.020;6.598;2023-11-21T13:05:38;10.68;;;6.60;;
52186;SDS011;38161;53.020;6.598;2023-11-21T13:08:06;9.73;;;5.97;;
52186;SDS011;38161;53.020;6.598;2023-11-21T13:10:35;10.85;;;6.55;;
52186;SDS011;38161;53.020;6.598;2023-11-21T13:15:31;11.23;;;6.47;;
52186;SDS011;38161;53.020;6.598;2023-11-21T13:17:58;9.70;;;6.25;;
52186;SDS011;38161;53.020;6.598;2023-11-21T13:20:25;9.82;;;6.57;;
52186;SDS011;38161;53.020;6.598;2023-11-21T13:22:51;11.23;;;6.88;;
52186;SDS011;38161;53.020;6.598;2023-11-21T13:25:29;11.05;;;6.90;;
52186;SDS011;38161;53.020;6.598;2023-11-21T13:27:57;11.23;;;6.07;;
52186;SDS011;38161;53.020;6.598;2023-11-21T13:30:26;12.63;;;7.50;;
52186;SDS011;38161;53.020;6.598;2023-11-21T13:33:08;11.32;;;6.80;;
52186;SDS011;38161;53.020;6.598;2023-11-21T13:35:35;10.75;;;7.05;;
52186;SDS011;38161;53.020;6.598;2023-11-21T13:38:09;10.18;;;6.80;;
52186;SDS011;38161;53.020;6.598;2023-11-21T13:40:37;11.38;;;7.38;;
52186;SDS011;38161;53.020;6.598;2023-11-21T13:43:12;9.15;;;6.30;;
52186;SDS011;38161;53.020;6.598;2023-11-21T13:45:39;10.07;;;6.82;;
52186;SDS011;38161;53.020;6.598;2023-11-21T13:48:07;11.05;;;6.63;;
52186;SDS011;38161;53.020;6.598;2023-11-21T13:50:42;11.10;;;7.15;;
52186;SDS011;38161;53.020;6.598;2023-11-21T13:53:14;11.07;;;6.80;;
52186;SDS011;38161;53.020;6.598;2023-11-21T13:55:51;11.55;;;7.35;;
52186;SDS011;38161;53.020;6.598;2023-11-21T13:58:25;10.27;;;6.38;;
52186;SDS011;38161;53.020;6.598;2023-11-21T14:01:06;9.65;;;5.95;;
52186;SDS011;38161;53.020;6.598;2023-11-21T14:03:49;9.07;;;6.13;;
52186;SDS011;38161;53.020;6.598;2023-11-21T14:06:22;9.00;;;6.05;;
52186;SDS011;38161;53.020;6.598;2023-11-21T14:08:56;10.05;;;5.75;;
52186;SDS011;38161;53.020;6.598;2023-11-21T14:11:22;9.27;;;6.35;;
52186;SDS011;38161;53.020;6.598;2023-11-21T14:13:50;10.48;;;6.13;;
52186;SDS011;38161;53.020;6.598;2023-11-21T14:16:16;9.38;;;6.07;;
52186;SDS011;38161;53.020;6.598;2023-11-21T14:18:43;9.82;;;6.47;;
52186;SDS011;38161;53.020;6.598;2023-11-21T14:21:26;9.18;;;5.70;;
52186;SDS011;38161;53.020;6.598;2023-11-21T14:23:52;10.05;;;5.90;;
52186;SDS011;38161;53.020;6.598;2023-11-21T14:26:20;10.25;;;6.25;;
52186;SDS011;38161;53.020;6.598;2023-11-21T14:28:46;8.93;;;5.80;;
52186;SDS011;38161;53.020;6.598;2023-11-21T14:31:14;9.23;;;6.32;;
52186;SDS011;38161;53.020;6.598;2023-11-21T14:33:42;10.90;;;6.40;;
52186;SDS011;38161;53.020;6.598;2023-11-21T14:36:11;9.18;;;6.35;;
52186;SDS011;38161;53.020;6.598;2023-11-21T14:38:37;11.90;;;6.38;;
52186;SDS011;38161;53.020;6.598;2023-11-21T14:41:05;9.30;;;5.85;;
52186;SDS011;38161;53.020;6.598;2023-11-21T14:43:37;9.10;;;6.00;;
52186;SDS011;38161;53.020;6.598;2023-11-21T14:46:04;9.15;;;6.47;;
52186;SDS011;38161;53.020;6.598;2023-11-21T14:48:35;10.68;;;6.10;;
52186;SDS011;38161;53.020;6.598;2023-11-21T14:51:20;11.05;;;5.85;;
52186;SDS011;38161;53.020;6.598;2023-11-21T14:53:55;9.40;;;5.90;;
52186;SDS011;38161;53.020;6.598;2023-11-21T14:56:35;9.65;;;5.90;;
52186;SDS011;38161;53.020;6.598;2023-11-21T14:59:03;10.07;;;6.15;;
52186;SDS011;38161;53.020;6.598;2023-11-21T15:01:34;10.93;;;6.00;;
52186;SDS011;38161;53.020;6.598;2023-11-21T15:04:18;8.75;;;5.60;;
52186;SDS011;38161;53.020;6.598;2023-11-21T15:07:05;8.30;;;5.47;;
52186;SDS011;38161;53.020;6.598;2023-11-21T15:09:31;10.00;;;5.25;;
52186;SDS011;38161;53.020;6.598;2023-11-21T15:11:58;9.77;;;5.32;;
52186;SDS011;38161;53.020;6.598;2023-11-21T15:14:45;8.05;;;5.13;;
52186;SDS011;38161;53.020;6.598;2023-11-21T15:17:15;10.75;;;5.18;;
52186;SDS011;38161;53.020;6.598;2023-11-21T15:20:02;9.70;;;5.25;;
52186;SDS011;38161;53.020;6.598;2023-11-21T15:22:32;8.70;;;5.05;;
52186;SDS011;38161;53.020;6.598;2023-11-21T15:24:58;9.02;;;4.88;;